sensor_id;sensor_type;location;lat;lon;timestamp;pressure;altitude;pressure_sealevel;temperature;humidity
66176;BME280;52977;44.816;20.538;2023-08-07T00:00:50;99115.25;;;18.34;98.63
66176;BME280;52977;44.816;20.538;2023-08-07T00:03:17;99114.06;;;18.35;99.14
66176;BME280;52977;44.816;20.538;2023-08-07T00:05:50;99126.69;;;18.32;100.00
66176;BME280;52977;44.816;20.538;2023-08-07T00:08:18;99071.69;;;17.98;100.00
66176;BME280;52977;44.816;20.538;2023-08-07T00:10:44;99087.13;;;18.14;100.00
66176;BME280;52977;44.816;20.538;2023-08-07T00:13:10;99114.84;;;18.32;100.00
66176;BME280;52977;44.816;20.538;2023-08-07T00:15:39;99089.09;;;18.09;100.00
66176;BME280;52977;44.816;20.538;2023-08-07T00:18:05;99083.19;;;18.07;100.00
66176;BME280;52977;44.816;20.538;2023-08-07T00:20:32;99126.31;;;18.34;97.75
66176;BME280;52977;44.816;20.538;2023-08-07T00:22:58;99102.91;;;18.09;97.80
66176;BME280;52977;44.816;20.538;2023-08-07T00:25:24;99086.72;;;18.04;97.10
66176;BME280;52977;44.816;20.538;2023-08-07T00:27:50;99115.19;;;18.26;96.99
66176;BME280;52977;44.816;20.538;2023-08-07T00:30:16;99062.59;;;17.94;96.02
66176;BME280;52977;44.816;20.538;2023-08-07T00:32:43;99127.44;;;18.25;97.00
66176;BME280;52977;44.816;20.538;2023-08-07T00:35:09;99087.00;;;17.85;97.04
66176;BME280;52977;44.816;20.538;2023-08-07T00:37:35;99130.19;;;18.22;97.60
66176;BME280;52977;44.816;20.538;2023-08-07T00:40:02;99078.72;;;17.88;96.08
66176;BME280;52977;44.816;20.538;2023-08-07T00:42:28;99135.31;;;18.23;94.89
66176;BME280;52977;44.816;20.538;2023-08-07T00:44:54;99131.34;;;18.17;95.35
66176;BME280;52977;44.816;20.538;2023-08-07T00:47:20;99111.56;;;18.08;95.77
66176;BME280;52977;44.816;20.538;2023-08-07T00:49:48;99133.72;;;18.19;96.80
66176;BME280;52977;44.816;20.538;2023-08-07T00:52:14;99149.56;;;18.25;97.54
66176;BME280;52977;44.816;20.538;2023-08-07T00:54:41;99088.59;;;17.89;96.95
66176;BME280;52977;44.816;20.538;2023-08-07T00:57:12;99125.38;;;18.04;96.91
66176;BME280;52977;44.816;20.538;2023-08-07T00:59:41;99140.41;;;18.10;96.51
66176;BME280;52977;44.816;20.538;2023-08-07T01:02:08;99092.47;;;17.81;96.73
66176;BME280;52977;44.816;20.538;2023-08-07T01:04:35;99149.50;;;18.15;97.35
66176;BME280;52977;44.816;20.538;2023-08-07T01:07:01;99154.56;;;18.05;99.59
66176;BME280;52977;44.816;20.538;2023-08-07T01:09:27;99149.47;;;18.07;99.65
66176;BME280;52977;44.816;20.538;2023-08-07T01:12:21;99062.72;;;17.46;100.00
66176;BME280;52977;44.816;20.538;2023-08-07T01:14:58;99145.50;;;18.05;100.00
66176;BME280;52977;44.816;20.538;2023-08-07T01:17:28;99141.19;;;18.07;99.35
66176;BME280;52977;44.816;20.538;2023-08-07T01:19:55;99132.84;;;18.00;99.33
66176;BME280;52977;44.816;20.538;2023-08-07T01:22:21;99153.75;;;17.98;100.00
66176;BME280;52977;44.816;20.538;2023-08-07T01:24:50;99142.31;;;17.99;98.80
66176;BME280;52977;44.816;20.538;2023-08-07T01:32:33;99149.84;;;18.06;96.91
66176;BME280;52977;44.816;20.538;2023-08-07T01:35:02;99132.34;;;17.84;96.39
66176;BME280;52977;44.816;20.538;2023-08-07T01:37:31;99140.19;;;17.78;96.77
66176;BME280;52977;44.816;20.538;2023-08-07T01:39:59;99124.81;;;17.81;96.36
66176;BME280;52977;44.816;20.538;2023-08-07T01:42:27;99076.13;;;17.51;96.39
66176;BME280;52977;44.816;20.538;2023-08-07T01:44:53;99119.69;;;17.83;97.79
66176;BME280;52977;44.816;20.538;2023-08-07T01:47:19;99144.19;;;17.88;98.23
66176;BME280;52977;44.816;20.538;2023-08-07T01:49:46;99146.13;;;17.84;97.94
66176;BME280;52977;44.816;20.538;2023-08-07T01:52:12;99137.03;;;17.80;99.08
66176;BME280;52977;44.816;20.538;2023-08-07T01:54:39;99104.94;;;17.53;98.34
66176;BME280;52977;44.816;20.538;2023-08-07T01:57:05;99127.53;;;17.73;97.91
66176;BME280;52977;44.816;20.538;2023-08-07T01:59:32;99147.78;;;17.92;96.86
66176;BME280;52977;44.816;20.538;2023-08-07T02:01:58;99153.31;;;17.96;95.83
66176;BME280;52977;44.816;20.538;2023-08-07T02:04:24;99156.50;;;18.01;94.87
66176;BME280;52977;44.816;20.538;2023-08-07T02:06:52;99144.66;;;17.97;93.82
66176;BME280;52977;44.816;20.538;2023-08-07T02:09:22;99165.59;;;18.02;93.52
66176;BME280;52977;44.816;20.538;2023-08-07T02:11:48;99159.69;;;18.03;92.69
66176;BME280;52977;44.816;20.538;2023-08-07T02:14:15;99154.94;;;18.04;92.74
66176;BME280;52977;44.816;20.538;2023-08-07T02:16:41;99156.91;;;18.00;93.22
66176;BME280;52977;44.816;20.538;2023-08-07T02:19:07;99116.47;;;17.73;93.57
66176;BME280;52977;44.816;20.538;2023-08-07T02:21:33;99114.50;;;17.67;94.58
66176;BME280;52977;44.816;20.538;2023-08-07T02:23:59;99130.91;;;17.49;94.42
66176;BME280;52977;44.816;20.538;2023-08-07T02:26:25;99148.03;;;17.72;95.43
66176;BME280;52977;44.816;20.538;2023-08-07T02:28:51;99106.47;;;17.47;96.08
66176;BME280;52977;44.816;20.538;2023-08-07T02:31:17;99082.00;;;17.42;98.36
66176;BME280;52977;44.816;20.538;2023-08-07T02:33:44;99049.50;;;17.14;97.94
66176;BME280;52977;44.816;20.538;2023-08-07T02:36:10;99112.94;;;17.73;96.94
66176;BME280;52977;44.816;20.538;2023-08-07T02:38:36;99117.28;;;17.77;95.12
66176;BME280;52977;44.816;20.538;2023-08-07T02:41:02;99116.09;;;17.71;96.81
66176;BME280;52977;44.816;20.538;2023-08-07T02:43:28;99087.63;;;17.60;94.68
66176;BME280;52977;44.816;20.538;2023-08-07T02:45:54;99128.41;;;17.85;94.74
66176;BME280;52977;44.816;20.538;2023-08-07T02:48:20;99109.03;;;17.81;93.13
66176;BME280;52977;44.816;20.538;2023-08-07T02:50:47;99124.94;;;17.95;92.21
66176;BME280;52977;44.816;20.538;2023-08-07T02:53:13;99126.53;;;18.00;90.78
66176;BME280;52977;44.816;20.538;2023-08-07T02:55:39;99111.94;;;18.03;90.61
66176;BME280;52977;44.816;20.538;2023-08-07T02:58:05;99117.47;;;18.03;89.94
66176;BME280;52977;44.816;20.538;2023-08-07T03:00:31;99046.59;;;17.55;88.64
66176;BME280;52977;44.816;20.538;2023-08-07T03:03:22;99115.09;;;17.98;88.43
66176;BME280;52977;44.816;20.538;2023-08-07T03:05:49;99125.38;;;18.04;87.95
66176;BME280;52977;44.816;20.538;2023-08-07T03:08:16;99122.63;;;18.08;87.92
66176;BME280;52977;44.816;20.538;2023-08-07T03:10:50;99134.78;;;17.92;88.87
66176;BME280;52977;44.816;20.538;2023-08-07T03:13:16;99092.75;;;17.62;90.35
66176;BME280;52977;44.816;20.538;2023-08-07T03:15:42;99139.44;;;17.88;91.63
66176;BME280;52977;44.816;20.538;2023-08-07T03:18:08;99147.34;;;17.90;91.68
66176;BME280;52977;44.816;20.538;2023-08-07T03:20:36;99100.63;;;17.56;89.67
66176;BME280;52977;44.816;20.538;2023-08-07T03:23:03;99161.59;;;17.96;89.21
66176;BME280;52977;44.816;20.538;2023-08-07T03:25:29;99156.44;;;17.90;90.27
66176;BME280;52977;44.816;20.538;2023-08-07T03:27:55;99152.50;;;17.91;88.44
66176;BME280;52977;44.816;20.538;2023-08-07T03:30:22;99152.44;;;17.84;90.29
66176;BME280;52977;44.816;20.538;2023-08-07T03:32:48;99140.50;;;17.69;89.02
66176;BME280;52977;44.816;20.538;2023-08-07T03:35:14;99146.38;;;17.60;91.02
66176;BME280;52977;44.816;20.538;2023-08-07T03:37:41;99168.13;;;17.73;91.74
66176;BME280;52977;44.816;20.538;2023-08-07T03:40:07;99187.09;;;17.78;90.05
66176;BME280;52977;44.816;20.538;2023-08-07T03:42:33;99171.38;;;17.82;87.96
66176;BME280;52977;44.816;20.538;2023-08-07T03:45:01;99143.69;;;17.71;86.78
66176;BME280;52977;44.816;20.538;2023-08-07T03:47:27;99164.72;;;17.90;86.38
66176;BME280;52977;44.816;20.538;2023-08-07T03:49:54;99143.75;;;17.86;85.50
66176;BME280;52977;44.816;20.538;2023-08-07T03:52:21;99096.56;;;17.39;85.23
66176;BME280;52977;44.816;20.538;2023-08-07T03:54:47;99186.88;;;17.98;85.43
66176;BME280;52977;44.816;20.538;2023-08-07T03:57:13;99179.34;;;17.91;86.60
66176;BME280;52977;44.816;20.538;2023-08-07T03:59:39;99184.50;;;18.00;85.98
66176;BME280;52977;44.816;20.538;2023-08-07T04:02:05;99180.94;;;17.96;84.70
66176;BME280;52977;44.816;20.538;2023-08-07T04:04:31;99146.50;;;17.79;84.03
66176;BME280;52977;44.816;20.538;2023-08-07T04:06:57;99093.06;;;17.46;84.51
66176;BME280;52977;44.816;20.538;2023-08-07T04:09:23;99192.06;;;18.06;84.31
66176;BME280;52977;44.816;20.538;2023-08-07T04:11:49;99186.50;;;18.03;85.12
66176;BME280;52977;44.816;20.538;2023-08-07T04:14:18;99198.34;;;18.07;86.25
66176;BME280;52977;44.816;20.538;2023-08-07T04:16:44;99180.97;;;17.99;85.37
66176;BME280;52977;44.816;20.538;2023-08-07T04:19:11;99179.69;;;17.89;84.57
66176;BME280;52977;44.816;20.538;2023-08-07T04:21:36;99186.88;;;17.98;84.54
66176;BME280;52977;44.816;20.538;2023-08-07T04:24:03;99150.44;;;17.81;84.56
66176;BME280;52977;44.816;20.538;2023-08-07T04:26:36;99187.78;;;18.13;85.29
66176;BME280;52977;44.816;20.538;2023-08-07T04:29:03;99194.44;;;18.08;86.39
66176;BME280;52977;44.816;20.538;2023-08-07T04:31:29;99156.00;;;17.85;87.29
66176;BME280;52977;44.816;20.538;2023-08-07T04:33:59;99187.63;;;17.91;88.98
66176;BME280;52977;44.816;20.538;2023-08-07T04:36:25;99200.69;;;17.98;88.44
66176;BME280;52977;44.816;20.538;2023-08-07T04:38:51;99200.69;;;18.01;87.67
66176;BME280;52977;44.816;20.538;2023-08-07T04:41:17;99192.81;;;18.03;85.70
66176;BME280;52977;44.816;20.538;2023-08-07T04:43:43;99175.41;;;17.92;85.21
66176;BME280;52977;44.816;20.538;2023-08-07T04:46:09;99194.38;;;18.01;85.37
66176;BME280;52977;44.816;20.538;2023-08-07T04:48:37;99171.00;;;17.87;85.67
66176;BME280;52977;44.816;20.538;2023-08-07T04:51:03;99207.50;;;18.15;85.34
66176;BME280;52977;44.816;20.538;2023-08-07T04:53:28;99210.19;;;18.04;82.90
66176;BME280;52977;44.816;20.538;2023-08-07T04:55:54;99182.00;;;17.80;84.87
66176;BME280;52977;44.816;20.538;2023-08-07T04:58:20;99207.69;;;17.88;88.19
66176;BME280;52977;44.816;20.538;2023-08-07T05:00:45;99208.03;;;17.83;88.67
66176;BME280;52977;44.816;20.538;2023-08-07T05:03:11;99206.13;;;17.90;90.16
66176;BME280;52977;44.816;20.538;2023-08-07T05:05:37;99183.50;;;17.70;91.40
66176;BME280;52977;44.816;20.538;2023-08-07T05:08:03;99219.97;;;17.94;93.83
66176;BME280;52977;44.816;20.538;2023-08-07T05:10:28;99208.19;;;18.01;94.37
66176;BME280;52977;44.816;20.538;2023-08-07T05:12:55;99221.66;;;18.06;95.80
66176;BME280;52977;44.816;20.538;2023-08-07T05:15:25;99195.34;;;17.74;96.60
66176;BME280;52977;44.816;20.538;2023-08-07T05:17:51;99223.00;;;17.78;98.32
66176;BME280;52977;44.816;20.538;2023-08-07T05:20:17;99221.44;;;17.81;99.05
66176;BME280;52977;44.816;20.538;2023-08-07T05:22:43;99223.44;;;17.87;100.00
66176;BME280;52977;44.816;20.538;2023-08-07T05:25:09;99221.44;;;17.81;100.00
66176;BME280;52977;44.816;20.538;2023-08-07T05:27:37;99228.91;;;17.76;100.00
66176;BME280;52977;44.816;20.538;2023-08-07T05:30:03;99225.47;;;17.90;100.00
66176;BME280;52977;44.816;20.538;2023-08-07T05:32:30;99242.09;;;18.01;100.00
66176;BME280;52977;44.816;20.538;2023-08-07T05:34:58;99228.28;;;17.98;100.00
66176;BME280;52977;44.816;20.538;2023-08-07T05:37:24;99206.88;;;17.84;100.00
66176;BME280;52977;44.816;20.538;2023-08-07T05:39:50;99237.47;;;18.13;100.00
66176;BME280;52977;44.816;20.538;2023-08-07T05:42:16;99233.50;;;18.10;100.00
66176;BME280;52977;44.816;20.538;2023-08-07T05:44:42;99252.16;;;18.24;100.00
66176;BME280;52977;44.816;20.538;2023-08-07T05:47:08;99249.78;;;18.26;100.00
66176;BME280;52977;44.816;20.538;2023-08-07T05:49:34;99201.47;;;17.98;100.00
66176;BME280;52977;44.816;20.538;2023-08-07T05:52:00;99241.84;;;18.21;100.00
66176;BME280;52977;44.816;20.538;2023-08-07T05:54:26;99245.06;;;18.30;99.60
66176;BME280;52977;44.816;20.538;2023-08-07T05:56:52;99243.81;;;18.20;99.48
66176;BME280;52977;44.816;20.538;2023-08-07T05:59:18;99239.81;;;18.10;100.00
66176;BME280;52977;44.816;20.538;2023-08-07T06:01:44;99251.66;;;18.11;99.93
66176;BME280;52977;44.816;20.538;2023-08-07T06:04:10;99259.59;;;18.16;100.00
66176;BME280;52977;44.816;20.538;2023-08-07T06:06:36;99262.34;;;18.16;100.00
66176;BME280;52977;44.816;20.538;2023-08-07T06:09:05;99255.31;;;18.26;100.00
66176;BME280;52977;44.816;20.538;2023-08-07T06:11:32;99258.09;;;18.33;100.00
66176;BME280;52977;44.816;20.538;2023-08-07T06:13:58;99260.16;;;18.43;100.00
66176;BME280;52977;44.816;20.538;2023-08-07T06:16:24;99249.09;;;18.43;100.00
66176;BME280;52977;44.816;20.538;2023-08-07T06:18:50;99240.00;;;18.43;100.00
66176;BME280;52977;44.816;20.538;2023-08-07T06:21:16;99231.31;;;18.41;99.87
66176;BME280;52977;44.816;20.538;2023-08-07T06:23:42;99246.78;;;18.56;98.22
66176;BME280;52977;44.816;20.538;2023-08-07T06:26:08;99271.34;;;18.69;98.28
66176;BME280;52977;44.816;20.538;2023-08-07T06:28:35;99257.09;;;18.67;98.37
66176;BME280;52977;44.816;20.538;2023-08-07T06:31:08;99252.78;;;18.66;97.66
66176;BME280;52977;44.816;20.538;2023-08-07T06:33:35;99266.19;;;18.67;97.74
66176;BME280;52977;44.816;20.538;2023-08-07T06:36:02;99261.84;;;18.70;96.99
66176;BME280;52977;44.816;20.538;2023-08-07T06:38:28;99223.06;;;18.48;95.00
66176;BME280;52977;44.816;20.538;2023-08-07T06:40:54;99253.19;;;18.71;93.21
66176;BME280;52977;44.816;20.538;2023-08-07T06:43:19;99259.94;;;18.81;91.48
66176;BME280;52977;44.816;20.538;2023-08-07T06:45:55;99265.91;;;18.90;91.21
66176;BME280;52977;44.816;20.538;2023-08-07T06:48:21;99240.19;;;18.75;92.55
66176;BME280;52977;44.816;20.538;2023-08-07T06:50:47;99258.00;;;18.85;92.20
66176;BME280;52977;44.816;20.538;2023-08-07T06:53:13;99269.50;;;18.91;93.99
66176;BME280;52977;44.816;20.538;2023-08-07T06:55:41;99261.19;;;18.94;92.50
66176;BME280;52977;44.816;20.538;2023-08-07T06:58:07;99235.88;;;18.85;92.66
66176;BME280;52977;44.816;20.538;2023-08-07T07:00:34;99240.19;;;18.86;89.94
66176;BME280;52977;44.816;20.538;2023-08-07T07:03:01;99227.13;;;18.79;89.85
66176;BME280;52977;44.816;20.538;2023-08-07T07:05:27;99243.78;;;18.90;89.98
66176;BME280;52977;44.816;20.538;2023-08-07T07:07:53;99264.38;;;18.97;91.45
66176;BME280;52977;44.816;20.538;2023-08-07T07:10:20;99246.97;;;18.92;91.68
66176;BME280;52977;44.816;20.538;2023-08-07T07:12:46;99279.44;;;19.13;89.14
66176;BME280;52977;44.816;20.538;2023-08-07T07:15:12;99283.41;;;19.16;89.46
66176;BME280;52977;44.816;20.538;2023-08-07T07:17:37;99286.56;;;19.18;90.30
66176;BME280;52977;44.816;20.538;2023-08-07T07:20:03;99263.63;;;19.14;90.56
66176;BME280;52977;44.816;20.538;2023-08-07T07:22:29;99245.84;;;19.08;91.32
66176;BME280;52977;44.816;20.538;2023-08-07T07:24:55;99266.03;;;19.23;91.26
66176;BME280;52977;44.816;20.538;2023-08-07T07:27:22;99281.84;;;19.37;89.77
66176;BME280;52977;44.816;20.538;2023-08-07T07:29:48;99228.47;;;19.11;87.42
66176;BME280;52977;44.816;20.538;2023-08-07T07:32:14;99282.69;;;19.44;89.49
66176;BME280;52977;44.816;20.538;2023-08-07T07:34:40;99275.16;;;19.45;90.64
66176;BME280;52977;44.816;20.538;2023-08-07T07:37:06;99281.50;;;19.49;90.61
66176;BME280;52977;44.816;20.538;2023-08-07T07:39:32;99286.25;;;19.49;91.57
66176;BME280;52977;44.816;20.538;2023-08-07T07:42:00;99266.84;;;19.34;91.54
66176;BME280;52977;44.816;20.538;2023-08-07T07:44:26;99239.13;;;19.09;90.59
66176;BME280;52977;44.816;20.538;2023-08-07T07:46:52;99290.59;;;19.46;90.65
66176;BME280;52977;44.816;20.538;2023-08-07T07:49:18;99219.72;;;19.02;90.90
66176;BME280;52977;44.816;20.538;2023-08-07T07:51:44;99241.94;;;19.23;90.30
66176;BME280;52977;44.816;20.538;2023-08-07T07:54:12;99294.97;;;19.58;89.42
66176;BME280;52977;44.816;20.538;2023-08-07T07:56:38;99284.66;;;19.47;89.49
66176;BME280;52977;44.816;20.538;2023-08-07T07:59:04;99295.34;;;19.56;89.39
66176;BME280;52977;44.816;20.538;2023-08-07T08:01:31;99286.66;;;19.61;88.44
66176;BME280;52977;44.816;20.538;2023-08-07T08:03:57;99295.38;;;19.67;88.44
66176;BME280;52977;44.816;20.538;2023-08-07T08:06:23;99299.31;;;19.70;86.12
66176;BME280;52977;44.816;20.538;2023-08-07T08:08:49;99297.34;;;19.70;86.50
66176;BME280;52977;44.816;20.538;2023-08-07T08:11:14;99294.19;;;19.72;86.53
66176;BME280;52977;44.816;20.538;2023-08-07T08:13:41;99276.75;;;19.53;85.19
66176;BME280;52977;44.816;20.538;2023-08-07T08:16:07;99302.13;;;19.73;82.76
66176;BME280;52977;44.816;20.538;2023-08-07T08:18:33;99266.47;;;19.46;83.74
66176;BME280;52977;44.816;20.538;2023-08-07T08:20:59;99304.91;;;19.84;81.32
66176;BME280;52977;44.816;20.538;2023-08-07T08:23:25;99278.34;;;19.69;80.09
66176;BME280;52977;44.816;20.538;2023-08-07T08:25:51;99293.06;;;19.87;80.42
66176;BME280;52977;44.816;20.538;2023-08-07T08:28:17;99252.25;;;19.59;80.40
66176;BME280;52977;44.816;20.538;2023-08-07T08:30:44;99291.47;;;19.86;79.97
66176;BME280;52977;44.816;20.538;2023-08-07T08:33:10;99305.31;;;19.97;80.44
66176;BME280;52977;44.816;20.538;2023-08-07T08:35:56;99300.16;;;19.99;82.10
66176;BME280;52977;44.816;20.538;2023-08-07T08:38:22;99310.47;;;19.98;80.70
66176;BME280;52977;44.816;20.538;2023-08-07T08:40:51;99302.53;;;19.90;81.28
66176;BME280;52977;44.816;20.538;2023-08-07T08:43:18;99304.91;;;20.02;81.21
66176;BME280;52977;44.816;20.538;2023-08-07T08:45:45;99304.91;;;20.06;81.25
66176;BME280;52977;44.816;20.538;2023-08-07T08:48:14;99306.88;;;20.09;76.98
66176;BME280;52977;44.816;20.538;2023-08-07T08:50:48;99307.28;;;20.11;77.58
66176;BME280;52977;44.816;20.538;2023-08-07T08:53:15;99300.53;;;20.12;76.24
66176;BME280;52977;44.816;20.538;2023-08-07T08:55:42;99291.47;;;20.15;76.00
66176;BME280;52977;44.816;20.538;2023-08-07T08:58:13;99246.38;;;19.86;75.97
66176;BME280;52977;44.816;20.538;2023-08-07T09:00:41;99306.88;;;20.30;76.66
66176;BME280;52977;44.816;20.538;2023-08-07T09:03:07;99302.13;;;20.31;75.83
66176;BME280;52977;44.816;20.538;2023-08-07T09:05:35;99279.56;;;20.22;76.23
66176;BME280;52977;44.816;20.538;2023-08-07T09:08:01;99272.84;;;20.12;76.61
66176;BME280;52977;44.816;20.538;2023-08-07T09:10:28;99300.53;;;20.30;73.94
66176;BME280;52977;44.816;20.538;2023-08-07T09:13:02;99295.00;;;20.23;71.98
66176;BME280;52977;44.816;20.538;2023-08-07T09:15:32;99292.22;;;20.30;73.78
66176;BME280;52977;44.816;20.538;2023-08-07T09:17:59;99296.59;;;20.35;73.24
66176;BME280;52977;44.816;20.538;2023-08-07T09:20:26;99251.06;;;20.18;73.94
66176;BME280;52977;44.816;20.538;2023-08-07T09:22:52;99283.91;;;20.44;75.02
66176;BME280;52977;44.816;20.538;2023-08-07T09:25:32;99285.84;;;20.51;75.09
66176;BME280;52977;44.816;20.538;2023-08-07T09:28:02;99299.28;;;20.63;74.01
66176;BME280;52977;44.816;20.538;2023-08-07T09:30:30;99296.50;;;20.63;74.09
66176;BME280;52977;44.816;20.538;2023-08-07T09:32:57;99305.59;;;20.75;76.55
66176;BME280;52977;44.816;20.538;2023-08-07T09:35:24;99302.84;;;20.78;73.76
66176;BME280;52977;44.816;20.538;2023-08-07T09:37:51;99296.81;;;21.02;78.70
66176;BME280;52977;44.816;20.538;2023-08-07T09:40:20;99298.78;;;21.01;70.44
66176;BME280;52977;44.816;20.538;2023-08-07T09:42:51;99252.13;;;20.63;72.50
66176;BME280;52977;44.816;20.538;2023-08-07T09:45:27;99307.88;;;21.05;71.86
66176;BME280;52977;44.816;20.538;2023-08-07T09:48:00;99320.56;;;21.10;71.27
66176;BME280;52977;44.816;20.538;2023-08-07T09:50:27;99272.66;;;20.91;73.27
66176;BME280;52977;44.816;20.538;2023-08-07T09:52:54;99307.41;;;21.25;73.04
66176;BME280;52977;44.816;20.538;2023-08-07T09:55:27;99301.47;;;21.19;69.99
66176;BME280;52977;44.816;20.538;2023-08-07T09:57:54;99280.22;;;20.87;68.64
66176;BME280;52977;44.816;20.538;2023-08-07T10:00:20;99302.38;;;21.02;70.60
66176;BME280;52977;44.816;20.538;2023-08-07T10:02:48;99308.69;;;21.02;69.72
66176;BME280;52977;44.816;20.538;2023-08-07T10:05:14;99307.94;;;20.87;68.33
66176;BME280;52977;44.816;20.538;2023-08-07T10:07:41;99242.34;;;20.34;68.56
66176;BME280;52977;44.816;20.538;2023-08-07T10:10:08;99237.22;;;20.21;70.06
66176;BME280;52977;44.816;20.538;2023-08-07T10:12:36;99304.03;;;20.63;70.30
66176;BME280;52977;44.816;20.538;2023-08-07T10:15:03;99307.63;;;20.56;71.05
66176;BME280;52977;44.816;20.538;2023-08-07T10:17:30;99312.00;;;20.50;71.83
66176;BME280;52977;44.816;20.538;2023-08-07T10:19:58;99315.16;;;20.56;72.80
66176;BME280;52977;44.816;20.538;2023-08-07T10:22:25;99318.31;;;20.69;72.27
66176;BME280;52977;44.816;20.538;2023-08-07T10:24:53;99323.81;;;20.83;71.72
66176;BME280;52977;44.816;20.538;2023-08-07T10:27:22;99296.09;;;20.65;71.35
66176;BME280;52977;44.816;20.538;2023-08-07T10:29:50;99300.47;;;20.77;71.42
66176;BME280;52977;44.816;20.538;2023-08-07T10:32:19;99277.50;;;20.65;70.59
66176;BME280;52977;44.816;20.538;2023-08-07T10:34:52;99320.19;;;21.00;72.11
66176;BME280;52977;44.816;20.538;2023-08-07T10:37:41;99311.81;;;21.15;70.83
66176;BME280;52977;44.816;20.538;2023-08-07T10:40:09;99307.44;;;21.21;72.21
66176;BME280;52977;44.816;20.538;2023-08-07T10:43:00;99317.25;;;21.37;73.26
66176;BME280;52977;44.816;20.538;2023-08-07T10:45:37;99306.03;;;21.62;74.04
66176;BME280;52977;44.816;20.538;2023-08-07T10:50:51;99306.69;;;21.80;68.97
66176;BME280;52977;44.816;20.538;2023-08-07T10:53:37;99317.50;;;21.67;71.51
66176;BME280;52977;44.816;20.538;2023-08-07T10:56:04;99307.28;;;21.46;72.01
66176;BME280;52977;44.816;20.538;2023-08-07T10:58:38;99229.09;;;20.88;76.01
66176;BME280;52977;44.816;20.538;2023-08-07T11:03:45;99305.75;;;21.34;76.27
66176;BME280;52977;44.816;20.538;2023-08-07T11:06:14;99276.53;;;21.08;73.31
66176;BME280;52977;44.816;20.538;2023-08-07T11:08:40;99248.44;;;21.03;73.52
66176;BME280;52977;44.816;20.538;2023-08-07T11:11:06;99233.69;;;21.16;74.93
66176;BME280;52977;44.816;20.538;2023-08-07T11:13:33;99264.84;;;21.46;71.53
66176;BME280;52977;44.816;20.538;2023-08-07T11:16:02;99288.41;;;21.87;75.50
66176;BME280;52977;44.816;20.538;2023-08-07T11:18:30;99296.97;;;22.07;73.25
66176;BME280;52977;44.816;20.538;2023-08-07T11:20:57;99284.25;;;22.06;73.86
66176;BME280;52977;44.816;20.538;2023-08-07T11:23:27;99266.81;;;22.05;74.29
66176;BME280;52977;44.816;20.538;2023-08-07T11:25:54;99273.81;;;22.21;69.99
66176;BME280;52977;44.816;20.538;2023-08-07T11:28:22;99266.91;;;22.32;74.25
66176;BME280;52977;44.816;20.538;2023-08-07T11:30:49;99221.00;;;22.17;74.22
66176;BME280;52977;44.816;20.538;2023-08-07T11:33:17;99254.72;;;22.23;69.29
66176;BME280;52977;44.816;20.538;2023-08-07T11:35:44;99291.44;;;22.48;67.42
66176;BME280;52977;44.816;20.538;2023-08-07T11:38:10;99274.66;;;22.56;69.18
66176;BME280;52977;44.816;20.538;2023-08-07T11:40:37;99269.41;;;22.65;68.83
66176;BME280;52977;44.816;20.538;2023-08-07T11:43:04;99224.72;;;22.45;70.05
66176;BME280;52977;44.816;20.538;2023-08-07T11:45:30;99269.03;;;22.94;70.91
66176;BME280;52977;44.816;20.538;2023-08-07T11:47:56;99257.88;;;22.97;67.94
66176;BME280;52977;44.816;20.538;2023-08-07T11:50:23;99255.41;;;23.03;66.44
66176;BME280;52977;44.816;20.538;2023-08-07T11:52:50;99259.34;;;23.06;66.54
66176;BME280;52977;44.816;20.538;2023-08-07T11:55:17;99211.53;;;22.83;66.30
66176;BME280;52977;44.816;20.538;2023-08-07T11:57:46;99254.97;;;23.08;64.83
66176;BME280;52977;44.816;20.538;2023-08-07T12:00:13;99232.28;;;22.79;65.48
66176;BME280;52977;44.816;20.538;2023-08-07T12:02:43;99255.41;;;22.72;67.49
66176;BME280;52977;44.816;20.538;2023-08-07T12:05:12;99253.69;;;22.47;68.56
66176;BME280;52977;44.816;20.538;2023-08-07T12:07:39;99258.72;;;22.60;70.46
66176;BME280;52977;44.816;20.538;2023-08-07T12:10:11;99239.56;;;22.69;66.97
66176;BME280;52977;44.816;20.538;2023-08-07T12:12:38;99189.66;;;22.55;64.99
66176;BME280;52977;44.816;20.538;2023-08-07T12:15:08;99256.69;;;22.98;64.52
66176;BME280;52977;44.816;20.538;2023-08-07T12:17:37;99245.16;;;22.96;64.17
66176;BME280;52977;44.816;20.538;2023-08-07T12:20:07;99250.47;;;23.18;63.83
66176;BME280;52977;44.816;20.538;2023-08-07T12:22:36;99248.16;;;23.09;62.93
66176;BME280;52977;44.816;20.538;2023-08-07T12:25:03;99250.81;;;22.89;67.12
66176;BME280;52977;44.816;20.538;2023-08-07T12:27:29;99251.47;;;22.69;69.29
66176;BME280;52977;44.816;20.538;2023-08-07T12:29:55;99211.31;;;22.32;70.58
66176;BME280;52977;44.816;20.538;2023-08-07T12:32:22;99208.28;;;22.19;69.60
66176;BME280;52977;44.816;20.538;2023-08-07T12:34:48;99210.75;;;22.10;68.45
66176;BME280;52977;44.816;20.538;2023-08-07T12:37:16;99256.22;;;22.31;68.16
66176;BME280;52977;44.816;20.538;2023-08-07T12:39:42;99257.19;;;22.55;67.72
66176;BME280;52977;44.816;20.538;2023-08-07T12:42:08;99219.38;;;22.61;67.02
66176;BME280;52977;44.816;20.538;2023-08-07T12:44:35;99208.84;;;22.76;65.06
66176;BME280;52977;44.816;20.538;2023-08-07T12:47:01;99216.44;;;23.03;64.44
66176;BME280;52977;44.816;20.538;2023-08-07T12:49:27;99259.81;;;23.31;64.97
66176;BME280;52977;44.816;20.538;2023-08-07T12:51:54;99248.41;;;23.49;64.44
66176;BME280;52977;44.816;20.538;2023-08-07T12:54:22;99254.31;;;23.28;65.48
66176;BME280;52977;44.816;20.538;2023-08-07T12:56:48;99247.53;;;22.98;65.09
66176;BME280;52977;44.816;20.538;2023-08-07T12:59:15;99254.94;;;22.77;65.61
66176;BME280;52977;44.816;20.538;2023-08-07T13:01:40;99257.94;;;22.59;65.21